createdAt,value
2019-06-20T00:00:52.307Z,21.27
2019-06-20T00:05:57.611Z,20.27
2019-06-20T00:11:03.177Z,25.07
2019-06-20T00:16:08.339Z,21.07
2019-06-20T00:21:13.728Z,20.73
2019-06-20T00:26:18.907Z,19.90
2019-06-20T00:31:23.898Z,21.37
2019-06-20T00:36:29.168Z,24.47
2019-06-20T00:41:34.386Z,21.87
2019-06-20T00:46:39.442Z,25.10
2019-06-20T00:51:44.594Z,21.77
2019-06-20T00:56:49.627Z,25.50
2019-06-20T01:01:54.909Z,22.07
2019-06-20T01:07:01.152Z,23.30
2019-06-20T01:12:07.603Z,22.43
2019-06-20T01:17:14.304Z,22.43
2019-06-20T01:22:21.010Z,21.73
2019-06-20T01:27:27.597Z,24.13
2019-06-20T01:32:34.042Z,24.77
2019-06-20T01:37:40.664Z,26.03
2019-06-20T01:42:47.266Z,22.83
2019-06-20T01:47:52.900Z,22.17
2019-06-20T01:52:58.948Z,23.63
2019-06-20T01:58:05.290Z,25.03
2019-06-20T02:03:12.280Z,25.90
2019-06-20T02:08:17.272Z,28.73
2019-06-20T02:13:22.413Z,23.23
2019-06-20T02:18:27.503Z,23.13
2019-06-20T02:23:32.559Z,26.37
2019-06-20T02:28:37.687Z,25.80
2019-06-20T02:33:42.756Z,23.87
2019-06-20T02:38:47.904Z,23.37
2019-06-20T02:43:53.079Z,22.80
2019-06-20T02:48:58.064Z,24.40
2019-06-20T02:54:03.592Z,23.10
2019-06-20T02:59:08.872Z,23.67
2019-06-20T03:04:13.973Z,28.97
2019-06-20T03:09:19.123Z,23.57
2019-06-20T03:14:24.232Z,28.07
2019-06-20T03:19:29.291Z,25.20
2019-06-20T03:24:34.458Z,25.07
2019-06-20T03:29:39.377Z,25.20
2019-06-20T03:34:44.484Z,29.83
2019-06-20T03:39:49.475Z,24.33
2019-06-20T03:45:02.176Z,25.77
2019-06-20T03:50:01.101Z,24.80
2019-06-20T03:55:06.712Z,25.97
2019-06-20T04:00:13.262Z,30.10
2019-06-20T04:05:18.367Z,25.70
2019-06-20T04:10:23.474Z,24.27
2019-06-20T04:15:28.358Z,28.73
2019-06-20T04:20:33.567Z,24.63
2019-06-20T04:25:38.587Z,28.53
2019-06-20T04:30:43.735Z,22.57
2019-06-20T04:35:49.886Z,26.23
2019-06-20T04:40:54.979Z,24.00
2019-06-20T04:46:01.645Z,24.13
2019-06-20T04:51:06.790Z,26.77
2019-06-20T04:56:11.911Z,26.27
2019-06-20T05:01:17.029Z,26.20
2019-06-20T05:06:22.154Z,21.40
2019-06-20T05:11:27.215Z,22.10
2019-06-20T05:16:32.356Z,24.93
2019-06-20T05:21:37.372Z,20.97
2019-06-20T05:26:42.497Z,19.50
2019-06-20T05:31:47.639Z,25.00
2019-06-20T05:36:52.734Z,19.40
2019-06-20T05:41:57.939Z,19.70
2019-06-20T05:47:12.507Z,18.90
2019-06-20T05:52:09.678Z,19.87
2019-06-20T05:57:14.830Z,19.73
2019-06-20T06:02:19.903Z,20.23
2019-06-20T06:07:25.003Z,20.23
2019-06-20T06:12:29.950Z,20.77
2019-06-20T06:17:35.068Z,19.97
2019-06-20T06:22:40.228Z,20.70
2019-06-20T06:27:45.214Z,18.83
2019-06-20T06:32:50.644Z,19.47
2019-06-20T06:37:55.918Z,18.83
2019-06-20T06:43:00.974Z,18.60
2019-06-20T06:48:06.108Z,19.60
2019-06-20T06:53:11.252Z,17.77
2019-06-20T06:58:16.345Z,18.70
2019-06-20T07:03:21.506Z,16.80
2019-06-20T07:08:26.611Z,16.63
2019-06-20T07:13:31.695Z,17.10
2019-06-20T07:18:36.647Z,16.80
2019-06-20T07:23:41.750Z,16.32
2019-06-20T07:28:46.760Z,14.50
2019-06-20T07:33:51.698Z,14.58
2019-06-20T07:38:56.603Z,15.03
2019-06-20T07:44:01.525Z,13.00
2019-06-20T07:49:06.653Z,12.63
2019-06-20T07:54:11.587Z,12.65
2019-06-20T07:59:16.802Z,14.00
2019-06-20T08:04:21.898Z,13.62
2019-06-20T08:09:43.833Z,13.70
2019-06-20T08:14:33.832Z,13.30
2019-06-20T08:19:38.945Z,13.18
2019-06-20T08:24:43.879Z,13.10
2019-06-20T08:29:49.107Z,13.18
2019-06-20T08:34:54.224Z,13.48
2019-06-20T08:40:00.030Z,13.62
2019-06-20T08:45:07.527Z,12.68
2019-06-20T08:50:12.749Z,13.58
2019-06-20T08:55:19.810Z,11.53
2019-06-20T09:00:26.512Z,10.45
2019-06-20T09:05:32.138Z,9.53
2019-06-20T09:10:43.365Z,10.30
2019-06-20T09:15:48.277Z,9.88
2019-06-20T09:20:54.261Z,10.00
2019-06-20T09:25:59.664Z,9.30
2019-06-20T09:31:05.060Z,9.43
2019-06-20T09:36:10.228Z,9.60
2019-06-20T09:41:15.299Z,8.65
2019-06-20T09:46:20.546Z,6.80
2019-06-20T09:51:25.648Z,7.37
2019-06-20T09:56:30.581Z,7.03
2019-06-20T10:01:35.651Z,6.17
2019-06-20T10:06:40.861Z,6.58
2019-06-20T10:11:46.945Z,6.40
2019-06-20T10:16:54.078Z,7.33
2019-06-20T10:21:59.173Z,7.12
2019-06-20T10:27:04.281Z,6.70
2019-06-20T10:32:09.378Z,7.05
2019-06-20T10:37:14.645Z,7.50
2019-06-20T10:42:20.021Z,8.03
2019-06-20T10:47:33.685Z,7.30
2019-06-20T10:52:31.507Z,8.00
2019-06-20T10:57:36.401Z,5.78
2019-06-20T11:02:42.257Z,6.25
2019-06-20T11:07:48.127Z,8.23
2019-06-20T11:12:56.232Z,7.72
2019-06-20T11:18:00.494Z,7.37
2019-06-20T11:23:05.615Z,6.72
2019-06-20T11:28:10.745Z,7.40
2019-06-20T11:33:15.684Z,5.72
2019-06-20T11:38:20.586Z,6.90
2019-06-20T11:43:25.703Z,6.60
2019-06-20T11:48:30.980Z,7.05
2019-06-20T11:53:36.552Z,6.87
2019-06-20T11:58:41.972Z,5.85
2019-06-20T12:03:46.923Z,7.20
2019-06-20T12:08:52.039Z,6.12
2019-06-20T12:13:57.144Z,6.62
2019-06-20T12:19:02.264Z,7.25
2019-06-20T12:24:08.628Z,7.80
2019-06-20T12:29:15.226Z,8.55
2019-06-20T12:34:20.323Z,9.68
2019-06-20T12:39:25.458Z,9.68
2019-06-20T12:44:30.526Z,9.33
2019-06-20T12:49:35.458Z,6.90
2019-06-20T12:54:41.376Z,6.20
2019-06-20T12:59:48.286Z,8.28
2019-06-20T13:04:53.626Z,7.67
2019-06-20T13:09:58.575Z,7.47
2019-06-20T13:15:03.894Z,8.85
2019-06-20T13:20:09.688Z,8.23
2019-06-20T13:25:15.675Z,7.17
2019-06-20T13:30:21.040Z,7.07
2019-06-20T13:35:25.977Z,6.83
2019-06-20T13:40:31.093Z,7.13
2019-06-20T13:45:36.320Z,7.33
2019-06-20T13:50:41.915Z,7.10
2019-06-20T13:55:47.797Z,6.92
2019-06-20T14:00:52.900Z,7.67
2019-06-20T14:05:58.273Z,6.58
2019-06-20T14:11:03.434Z,6.45
2019-06-20T14:16:08.449Z,7.05
2019-06-20T14:21:13.592Z,6.47
2019-06-20T14:26:18.771Z,7.35
2019-06-20T14:31:23.727Z,6.75
2019-06-20T14:36:28.798Z,6.97
2019-06-20T14:41:34.052Z,6.87
2019-06-20T14:46:39.265Z,7.10
2019-06-20T14:51:45.399Z,6.92
2019-06-20T14:56:51.936Z,6.25
2019-06-20T15:01:57.299Z,6.08
2019-06-20T15:07:02.220Z,4.83
2019-06-20T15:12:07.353Z,4.87
2019-06-20T15:17:12.255Z,5.25
2019-06-20T15:22:17.210Z,5.05
2019-06-20T15:27:22.364Z,4.55
2019-06-20T15:32:27.290Z,4.92
2019-06-20T15:37:32.232Z,4.47
2019-06-20T15:42:37.331Z,4.30
2019-06-20T15:47:42.282Z,5.30
2019-06-20T15:52:47.560Z,5.10
2019-06-20T15:57:54.163Z,5.67
2019-06-20T16:03:09.375Z,6.15
2019-06-20T16:08:06.132Z,5.97
2019-06-20T16:13:11.393Z,6.47
2019-06-20T16:18:16.513Z,6.58
2019-06-20T16:23:21.470Z,5.60
2019-06-20T16:28:26.668Z,7.05
2019-06-20T16:33:31.676Z,6.47
2019-06-20T16:38:36.767Z,6.45
2019-06-20T16:43:42.449Z,6.67
2019-06-20T16:48:47.621Z,6.43
2019-06-20T16:53:52.687Z,6.53
2019-06-20T16:58:57.825Z,6.97
2019-06-20T17:04:02.915Z,7.33
2019-06-20T17:09:09.642Z,7.20
2019-06-20T17:14:15.365Z,7.87
2019-06-20T17:19:21.876Z,7.00
2019-06-20T17:24:27.299Z,8.30
2019-06-20T17:29:32.386Z,11.87
2019-06-20T17:34:37.819Z,9.67
2019-06-20T17:39:42.773Z,8.80
2019-06-20T17:44:48.390Z,10.03
2019-06-20T17:49:53.400Z,8.95
2019-06-20T17:54:58.427Z,7.27
2019-06-20T18:00:05.546Z,7.37
2019-06-20T18:05:10.770Z,7.40
2019-06-20T18:10:17.531Z,7.50
2019-06-20T18:15:24.216Z,7.97
2019-06-20T18:20:29.614Z,7.67
2019-06-20T18:25:34.645Z,7.13
2019-06-20T18:30:44.718Z,7.33
2019-06-20T18:35:49.855Z,7.30
2019-06-20T18:40:55.445Z,7.53
2019-06-20T18:46:00.799Z,9.17
2019-06-20T18:51:06.051Z,9.47
2019-06-20T18:56:11.219Z,10.17
2019-06-20T19:01:16.726Z,10.63
2019-06-20T19:06:35.141Z,9.57
2019-06-20T19:11:47.828Z,10.90
2019-06-20T19:16:52.981Z,10.67
2019-06-20T19:21:58.285Z,10.27
2019-06-20T19:27:03.342Z,11.87
2019-06-20T19:32:08.581Z,12.10
2019-06-20T19:37:13.888Z,11.40
2019-06-20T19:42:20.668Z,12.80
2019-06-20T19:47:26.018Z,12.30
2019-06-20T19:52:31.394Z,12.13
2019-06-20T19:57:36.603Z,12.67
2019-06-20T20:02:41.823Z,13.93
2019-06-20T20:07:47.174Z,14.77
2019-06-20T20:12:52.325Z,14.87
2019-06-20T20:17:57.464Z,16.90
2019-06-20T20:23:02.487Z,18.93
2019-06-20T20:28:07.654Z,18.43
2019-06-20T20:33:12.566Z,19.20
2019-06-20T20:38:17.750Z,18.13
2019-06-20T20:43:23.043Z,16.77
2019-06-20T20:48:28.165Z,17.97
2019-06-20T20:53:33.428Z,17.47
2019-06-20T20:58:38.866Z,17.37
2019-06-20T21:03:44.014Z,17.70
2019-06-20T21:08:48.984Z,16.80
2019-06-20T21:13:54.138Z,16.57
2019-06-20T21:18:59.326Z,16.97
2019-06-20T21:24:04.716Z,15.57
2019-06-20T21:29:09.596Z,17.73
2019-06-20T21:34:14.803Z,16.90
2019-06-20T21:39:20.118Z,17.57
2019-06-20T21:44:25.380Z,17.40
2019-06-20T21:49:30.776Z,17.67
2019-06-20T21:54:35.864Z,18.90
2019-06-20T21:59:41.010Z,19.47
2019-06-20T22:04:54.358Z,19.80
2019-06-20T22:09:52.491Z,21.13
2019-06-20T22:14:57.461Z,20.33
2019-06-20T22:20:02.595Z,19.67
2019-06-20T22:25:08.528Z,18.10
2019-06-20T22:30:15.392Z,20.00
2019-06-20T22:35:20.547Z,21.37
2019-06-20T22:40:25.720Z,19.03
2019-06-20T22:45:31.072Z,22.27
2019-06-20T22:50:36.370Z,20.43
2019-06-20T22:55:41.596Z,20.97
2019-06-20T23:00:47.188Z,22.87
2019-06-20T23:05:52.468Z,22.77
2019-06-20T23:10:57.630Z,25.97
2019-06-20T23:16:02.838Z,24.17
2019-06-20T23:21:07.750Z,26.97
2019-06-20T23:26:13.327Z,25.73
2019-06-20T23:31:18.630Z,25.83
2019-06-20T23:36:23.782Z,23.13
2019-06-20T23:41:29.202Z,26.30
2019-06-20T23:46:34.325Z,23.20
2019-06-20T23:51:43.816Z,22.67
2019-06-20T23:56:49.356Z,23.20
